createdAt,value
2023-05-15T00:02:06.107Z,6.70
2023-05-15T00:04:40.569Z,7.07
2023-05-15T00:07:13.632Z,6.20
2023-05-15T00:09:46.629Z,6.88
2023-05-15T00:12:19.776Z,6.65
2023-05-15T00:14:52.829Z,6.50
2023-05-15T00:17:26.834Z,6.63
2023-05-15T00:20:01.268Z,6.60
2023-05-15T00:22:34.398Z,6.97
2023-05-15T00:25:08.777Z,6.15
2023-05-15T00:27:41.775Z,6.35
2023-05-15T00:30:16.180Z,6.40
2023-05-15T00:32:49.275Z,6.55
2023-05-15T00:35:23.841Z,7.20
2023-05-15T00:37:56.966Z,6.82
2023-05-15T00:40:30.721Z,7.00
2023-05-15T00:43:04.837Z,6.35
2023-05-15T00:45:40.965Z,7.18
2023-05-15T00:48:15.014Z,6.45
2023-05-15T00:50:51.880Z,6.35
2023-05-15T00:53:25.286Z,6.25
2023-05-15T00:55:59.750Z,6.90
2023-05-15T00:58:33.265Z,7.10
2023-05-15T01:01:08.414Z,6.72
2023-05-15T01:03:41.983Z,6.45
2023-05-15T01:06:16.348Z,7.47
2023-05-15T01:08:50.894Z,6.88
2023-05-15T01:11:35.603Z,6.30
2023-05-15T01:14:09.647Z,6.28
2023-05-15T01:16:42.637Z,6.80
2023-05-15T01:19:16.251Z,6.63
2023-05-15T01:22:19.484Z,6.70
2023-05-15T01:25:28.232Z,6.80
2023-05-15T01:28:07.249Z,7.05
2023-05-15T01:30:44.148Z,6.65
2023-05-15T01:33:23.584Z,6.28
2023-05-15T01:36:06.076Z,6.85
2023-05-15T01:38:43.437Z,6.70
2023-05-15T01:41:25.128Z,6.93
2023-05-15T01:44:07.633Z,6.93
2023-05-15T01:46:46.846Z,6.80
2023-05-15T01:49:25.848Z,6.47
2023-05-15T01:52:06.696Z,6.90
2023-05-15T01:54:41.255Z,6.60
2023-05-15T01:57:15.611Z,6.93
2023-05-15T01:59:51.031Z,6.80
2023-05-15T02:02:25.230Z,7.18
2023-05-15T02:04:59.672Z,7.00
2023-05-15T02:07:33.945Z,6.80
2023-05-15T02:10:08.475Z,7.20
2023-05-15T02:12:42.436Z,7.00
2023-05-15T02:15:19.169Z,6.88
2023-05-15T02:17:52.196Z,6.82
2023-05-15T02:20:25.329Z,6.05
2023-05-15T02:22:58.290Z,6.90
2023-05-15T02:25:43.222Z,6.28
2023-05-15T02:28:25.586Z,6.57
2023-05-15T02:31:07.237Z,7.47
2023-05-15T02:33:47.814Z,6.80
2023-05-15T02:36:30.039Z,7.55
2023-05-15T02:39:03.765Z,7.25
2023-05-15T02:41:39.371Z,6.57
2023-05-15T02:44:15.017Z,6.65
2023-05-15T02:46:51.662Z,7.07
2023-05-15T02:49:24.872Z,7.03
2023-05-15T02:51:57.852Z,6.57
2023-05-15T02:54:30.819Z,6.72
2023-05-15T02:57:03.885Z,6.63
2023-05-15T02:59:38.257Z,6.40
2023-05-15T03:02:12.548Z,6.97
2023-05-15T03:04:47.064Z,7.20
2023-05-15T03:07:21.082Z,7.13
2023-05-15T03:09:54.130Z,7.55
2023-05-15T03:12:27.218Z,7.80
2023-05-15T03:15:01.907Z,7.78
2023-05-15T03:17:36.255Z,8.05
2023-05-15T03:20:11.164Z,8.07
2023-05-15T03:22:44.213Z,7.40
2023-05-15T03:25:17.668Z,8.10
2023-05-15T03:27:50.649Z,8.27
2023-05-15T03:30:23.635Z,7.53
2023-05-15T03:32:58.325Z,8.00
2023-05-15T03:35:32.602Z,7.40
2023-05-15T03:38:05.687Z,8.27
2023-05-15T03:40:39.774Z,7.07
2023-05-15T03:43:12.709Z,7.60
2023-05-15T03:45:45.712Z,8.13
2023-05-15T03:48:20.037Z,7.88
2023-05-15T03:50:53.219Z,8.10
2023-05-15T03:53:26.243Z,8.55
2023-05-15T03:55:59.199Z,8.52
2023-05-15T03:58:32.923Z,7.90
2023-05-15T04:01:05.963Z,8.05
2023-05-15T04:03:40.366Z,8.32
2023-05-15T04:06:13.440Z,8.45
2023-05-15T04:08:46.416Z,7.90
2023-05-15T04:11:19.365Z,7.80
2023-05-15T04:13:52.316Z,9.35
2023-05-15T04:16:25.389Z,8.18
2023-05-15T04:18:59.756Z,8.63
2023-05-15T04:21:32.807Z,8.20
2023-05-15T04:24:06.503Z,9.00
2023-05-15T04:26:39.554Z,8.60
2023-05-15T04:29:12.559Z,8.32
2023-05-15T04:31:45.546Z,9.13
2023-05-15T04:34:19.872Z,8.32
2023-05-15T04:36:52.969Z,8.52
2023-05-15T04:39:25.965Z,8.60
2023-05-15T04:41:58.988Z,8.45
2023-05-15T04:44:32.119Z,8.35
2023-05-15T04:47:06.091Z,9.73
2023-05-15T04:49:42.226Z,8.75
2023-05-15T04:52:15.282Z,9.10
2023-05-15T04:54:50.966Z,8.23
2023-05-15T04:57:24.339Z,7.80
2023-05-15T04:59:58.016Z,8.98
2023-05-15T05:02:31.106Z,8.82
2023-05-15T05:05:07.198Z,8.25
2023-05-15T05:07:40.342Z,8.32
2023-05-15T05:10:14.014Z,7.95
2023-05-15T05:12:47.028Z,8.15
2023-05-15T05:15:20.269Z,8.27
2023-05-15T05:17:54.392Z,8.38
2023-05-15T05:20:28.724Z,9.48
2023-05-15T05:23:01.709Z,8.93
2023-05-15T05:25:34.750Z,9.07
2023-05-15T05:28:07.757Z,7.75
2023-05-15T05:30:40.760Z,8.23
2023-05-15T05:33:13.818Z,7.65
2023-05-15T05:35:48.185Z,7.72
2023-05-15T05:38:21.206Z,7.82
2023-05-15T05:40:54.212Z,7.93
2023-05-15T05:43:27.307Z,7.63
2023-05-15T05:46:00.444Z,7.35
2023-05-15T05:48:33.451Z,7.57
2023-05-15T05:51:07.808Z,7.18
2023-05-15T05:53:40.805Z,7.55
2023-05-15T05:56:13.890Z,7.50
2023-05-15T05:58:47.030Z,7.43
2023-05-15T06:01:20.056Z,7.32
2023-05-15T06:03:53.154Z,6.72
2023-05-15T06:06:27.522Z,7.07
2023-05-15T06:09:00.494Z,6.90
2023-05-15T06:11:34.349Z,6.63
2023-05-15T06:14:08.365Z,6.22
2023-05-15T06:16:41.354Z,7.20
2023-05-15T06:19:14.364Z,6.32
2023-05-15T06:21:49.142Z,6.50
2023-05-15T06:24:22.133Z,6.65
2023-05-15T06:26:55.354Z,6.50
2023-05-15T06:29:28.375Z,6.65
2023-05-15T06:32:01.461Z,6.88
2023-05-15T06:34:34.441Z,6.60
2023-05-15T06:37:08.791Z,6.90
2023-05-15T06:39:41.747Z,6.30
2023-05-15T06:42:15.155Z,5.82
2023-05-15T06:44:49.582Z,6.70
2023-05-15T06:47:22.593Z,6.43
2023-05-15T06:49:56.282Z,6.03
2023-05-15T06:52:31.730Z,6.43
2023-05-15T06:55:05.054Z,6.40
2023-05-15T06:57:38.057Z,6.53
2023-05-15T07:00:12.850Z,6.55
2023-05-15T07:02:45.941Z,6.82
2023-05-15T07:05:19.036Z,7.18
2023-05-15T07:07:53.345Z,7.07
2023-05-15T07:10:26.742Z,7.32
2023-05-15T07:12:59.945Z,7.18
2023-05-15T07:15:33.113Z,7.35
2023-05-15T07:18:07.374Z,7.05
2023-05-15T07:20:40.507Z,6.93
2023-05-15T07:23:14.847Z,6.78
2023-05-15T07:25:47.888Z,7.60
2023-05-15T07:28:20.942Z,7.38
2023-05-15T07:30:53.986Z,7.00
2023-05-15T07:33:27.861Z,6.80
2023-05-15T07:36:00.950Z,6.60
2023-05-15T07:38:35.325Z,7.18
2023-05-15T07:41:08.875Z,7.10
2023-05-15T07:43:41.825Z,7.28
2023-05-15T07:46:14.869Z,7.32
2023-05-15T07:48:47.877Z,7.70
2023-05-15T07:51:20.853Z,7.00
2023-05-15T07:53:55.199Z,6.70
2023-05-15T07:56:28.619Z,6.47
2023-05-15T07:59:01.677Z,7.18
2023-05-15T08:01:34.763Z,6.40
2023-05-15T08:04:09.915Z,6.43
2023-05-15T08:06:44.503Z,6.70
2023-05-15T08:09:19.041Z,6.20
2023-05-15T08:11:52.045Z,6.50
2023-05-15T08:14:25.077Z,6.68
2023-05-15T08:16:58.064Z,6.45
2023-05-15T08:19:31.017Z,6.72
2023-05-15T08:22:04.043Z,6.57
2023-05-15T08:24:38.602Z,7.30
2023-05-15T08:27:11.706Z,6.82
2023-05-15T08:29:45.065Z,6.55
2023-05-15T08:32:18.190Z,5.88
2023-05-15T08:34:51.187Z,5.78
2023-05-15T08:37:24.150Z,6.53
2023-05-15T08:39:58.537Z,6.15
2023-05-15T08:42:41.217Z,5.78
2023-05-15T08:45:14.819Z,5.90
2023-05-15T08:47:48.085Z,5.53
2023-05-15T08:50:22.564Z,5.80
2023-05-15T08:52:58.359Z,5.72
2023-05-15T08:55:33.246Z,5.50
2023-05-15T08:58:06.361Z,5.10
2023-05-15T09:00:39.928Z,4.85
2023-05-15T09:03:18.284Z,5.00
2023-05-15T09:05:53.861Z,5.20
2023-05-15T09:08:28.350Z,4.65
2023-05-15T09:11:04.302Z,5.00
2023-05-15T09:13:37.287Z,5.10
2023-05-15T09:16:10.310Z,5.70
2023-05-15T09:18:44.776Z,5.35
2023-05-15T09:21:25.235Z,5.28
2023-05-15T09:24:19.156Z,5.20
2023-05-15T09:27:07.889Z,5.45
2023-05-15T09:29:41.629Z,5.57
2023-05-15T09:32:16.195Z,5.13
2023-05-15T09:34:49.347Z,5.50
2023-05-15T09:37:31.928Z,5.60
2023-05-15T09:40:10.786Z,5.28
2023-05-15T09:42:53.041Z,5.50
2023-05-15T09:45:29.645Z,5.45
2023-05-15T09:48:06.941Z,5.32
2023-05-15T09:50:42.560Z,5.35
2023-05-15T09:55:55.286Z,5.10
2023-05-15T09:58:29.626Z,4.90
2023-05-15T10:01:04.036Z,4.78
2023-05-15T10:03:37.200Z,5.38
2023-05-15T10:06:19.369Z,5.22
2023-05-15T10:08:54.092Z,5.15
2023-05-15T10:11:27.608Z,4.50
2023-05-15T10:14:02.958Z,4.80
2023-05-15T10:16:38.750Z,4.75
2023-05-15T10:19:13.678Z,4.82
2023-05-15T10:21:47.742Z,4.47
2023-05-15T10:24:22.365Z,4.70
2023-05-15T10:26:58.812Z,4.28
2023-05-15T10:29:33.866Z,4.10
2023-05-15T10:32:07.202Z,4.50
2023-05-15T10:34:40.263Z,4.38
2023-05-15T10:37:14.292Z,3.97
2023-05-15T10:39:49.168Z,4.20
2023-05-15T10:42:22.557Z,4.10
2023-05-15T10:45:00.120Z,4.05
2023-05-15T10:47:34.398Z,4.30
2023-05-15T10:50:09.231Z,4.00
2023-05-15T10:52:43.124Z,4.25
2023-05-15T10:55:18.648Z,3.88
2023-05-15T10:57:51.832Z,4.00
2023-05-15T11:00:31.331Z,4.47
2023-05-15T11:03:06.550Z,4.22
2023-05-15T11:06:10.674Z,4.47
2023-05-15T11:08:45.112Z,4.30
2023-05-15T11:11:56.798Z,4.32
2023-05-15T11:14:31.433Z,3.92
2023-05-15T11:17:08.317Z,4.10
2023-05-15T11:19:58.708Z,4.03
2023-05-15T11:22:36.737Z,4.32
2023-05-15T11:25:12.466Z,3.90
2023-05-15T11:27:47.054Z,3.80
2023-05-15T11:30:22.288Z,4.38
2023-05-15T11:33:01.733Z,4.80
2023-05-15T11:35:36.900Z,4.88
2023-05-15T11:38:17.892Z,4.60
2023-05-15T11:40:55.003Z,4.50
2023-05-15T11:43:29.406Z,4.25
2023-05-15T11:46:08.342Z,4.32
2023-05-15T11:48:44.279Z,4.30
2023-05-15T11:51:22.842Z,4.70
2023-05-15T11:53:57.151Z,4.65
2023-05-15T11:56:30.147Z,4.65
2023-05-15T11:59:03.265Z,5.13
2023-05-15T12:01:41.970Z,4.25
2023-05-15T12:04:18.173Z,3.30
2023-05-15T12:06:51.653Z,3.03
2023-05-15T12:09:27.291Z,3.42
2023-05-15T12:12:00.390Z,3.40
2023-05-15T12:14:33.924Z,3.70
2023-05-15T12:17:07.176Z,3.33
2023-05-15T12:19:41.898Z,4.03
2023-05-15T12:22:14.927Z,3.33
2023-05-15T12:24:47.919Z,3.58
2023-05-15T12:27:21.034Z,2.80
2023-05-15T12:29:55.016Z,3.72
2023-05-15T12:32:28.485Z,3.30
2023-05-15T12:35:03.692Z,3.22
2023-05-15T12:37:37.480Z,3.10
2023-05-15T12:40:12.301Z,3.03
2023-05-15T12:42:46.637Z,2.85
2023-05-15T12:45:22.183Z,2.60
2023-05-15T12:47:55.233Z,2.50
2023-05-15T12:50:30.726Z,2.22
2023-05-15T12:53:05.883Z,2.42
2023-05-15T12:55:41.216Z,2.45
2023-05-15T12:58:18.610Z,2.22
2023-05-15T13:00:53.314Z,2.78
2023-05-15T13:03:27.945Z,2.90
2023-05-15T13:06:04.190Z,3.08
2023-05-15T13:08:41.706Z,3.10
2023-05-15T13:11:15.218Z,2.80
2023-05-15T13:13:50.673Z,2.90
2023-05-15T13:16:29.560Z,2.80
2023-05-15T13:19:02.867Z,2.70
2023-05-15T13:21:37.336Z,2.72
2023-05-15T13:24:11.076Z,2.58
2023-05-15T13:26:44.142Z,2.50
2023-05-15T13:29:17.131Z,2.25
2023-05-15T13:31:50.250Z,2.55
2023-05-15T13:34:23.325Z,2.75
2023-05-15T13:36:57.708Z,2.58
2023-05-15T13:39:30.703Z,2.30
2023-05-15T13:42:03.715Z,2.58
2023-05-15T13:44:37.629Z,2.35
2023-05-15T13:47:10.770Z,2.40
2023-05-15T13:49:43.886Z,2.28
2023-05-15T13:52:18.217Z,2.10
2023-05-15T13:54:52.520Z,2.60
2023-05-15T13:57:25.636Z,2.70
2023-05-15T13:59:58.723Z,2.80
2023-05-15T14:02:31.733Z,2.90
2023-05-15T14:05:05.624Z,2.72
2023-05-15T14:07:40.369Z,2.58
2023-05-15T14:10:13.543Z,2.80
2023-05-15T14:12:46.980Z,2.88
2023-05-15T14:15:20.973Z,2.50
2023-05-15T14:17:54.291Z,3.00
2023-05-15T14:20:27.734Z,3.22
2023-05-15T14:23:02.252Z,3.03
2023-05-15T14:25:35.508Z,3.08
2023-05-15T14:28:08.524Z,3.08
2023-05-15T14:30:41.630Z,3.20
2023-05-15T14:33:14.694Z,3.22
2023-05-15T14:35:47.782Z,2.95
2023-05-15T14:38:23.030Z,3.10
2023-05-15T14:40:56.061Z,3.30
2023-05-15T14:43:29.959Z,3.25
2023-05-15T14:46:03.170Z,3.30
2023-05-15T14:48:36.184Z,3.40
2023-05-15T14:51:09.200Z,3.35
2023-05-15T14:53:44.473Z,3.75
2023-05-15T14:56:17.488Z,3.50
2023-05-15T14:58:51.010Z,3.58
2023-05-15T15:01:24.059Z,3.50
2023-05-15T15:03:57.145Z,3.65
2023-05-15T15:06:31.785Z,3.05
2023-05-15T15:09:06.208Z,3.15
2023-05-15T15:11:39.261Z,3.17
2023-05-15T15:14:12.335Z,3.25
2023-05-15T15:16:46.447Z,3.58
2023-05-15T15:19:20.414Z,3.55
2023-05-15T15:21:53.697Z,3.60
2023-05-15T15:24:28.476Z,3.47
2023-05-15T15:27:01.481Z,3.97
2023-05-15T15:29:34.469Z,3.97
2023-05-15T15:32:08.486Z,3.70
2023-05-15T15:34:41.564Z,3.78
2023-05-15T15:37:14.531Z,3.63
2023-05-15T15:39:48.923Z,3.95
2023-05-15T15:42:22.586Z,3.90
2023-05-15T15:44:56.430Z,4.00
2023-05-15T15:47:31.829Z,3.97
2023-05-15T15:50:05.383Z,3.67
2023-05-15T15:52:38.417Z,3.95
2023-05-15T15:55:12.870Z,3.97
2023-05-15T15:57:46.150Z,4.03
2023-05-15T16:00:19.696Z,3.67
2023-05-15T16:02:52.893Z,4.05
2023-05-15T16:05:25.947Z,4.10
2023-05-15T16:07:59.094Z,4.10
2023-05-15T16:10:33.538Z,3.80
2023-05-15T16:13:06.590Z,3.90
2023-05-15T16:15:39.578Z,3.72
2023-05-15T16:18:12.677Z,4.10
2023-05-15T16:20:46.334Z,3.85
2023-05-15T16:23:21.107Z,3.85
2023-05-15T16:25:55.542Z,4.00
2023-05-15T16:28:28.584Z,3.97
2023-05-15T16:31:02.581Z,4.10
2023-05-15T16:33:35.911Z,4.47
2023-05-15T16:36:09.593Z,3.97
2023-05-15T16:38:42.646Z,4.90
2023-05-15T16:41:17.022Z,4.50
2023-05-15T16:43:50.603Z,4.50
2023-05-15T16:46:23.667Z,4.75
2023-05-15T16:48:56.791Z,4.32
2023-05-15T16:51:29.842Z,4.60
2023-05-15T16:54:02.892Z,4.70
2023-05-15T16:56:37.345Z,4.85
2023-05-15T16:59:10.729Z,4.45
2023-05-15T17:01:43.736Z,5.10
2023-05-15T17:04:16.736Z,5.20
2023-05-15T17:06:49.758Z,4.90
2023-05-15T17:09:22.744Z,4.55
2023-05-15T17:11:57.114Z,4.72
2023-05-15T17:14:30.086Z,4.85
2023-05-15T17:17:03.415Z,4.93
2023-05-15T17:19:36.430Z,4.82
2023-05-15T17:22:09.539Z,4.80
2023-05-15T17:24:50.856Z,4.65
2023-05-15T17:27:26.277Z,4.50
2023-05-15T17:29:59.347Z,4.63
2023-05-15T17:32:32.409Z,4.80
2023-05-15T17:35:06.232Z,4.75
2023-05-15T17:37:39.911Z,4.18
2023-05-15T17:40:13.503Z,4.28
2023-05-15T17:42:47.852Z,4.60
2023-05-15T17:45:20.971Z,3.67
2023-05-15T17:47:54.023Z,3.60
2023-05-15T17:50:27.100Z,3.80
2023-05-15T17:53:00.138Z,4.10
2023-05-15T17:55:33.346Z,3.80
2023-05-15T17:58:07.694Z,3.78
2023-05-15T18:00:40.728Z,4.07
2023-05-15T18:03:13.961Z,4.00
2023-05-15T18:05:47.530Z,4.10
2023-05-15T18:08:20.619Z,4.32
2023-05-15T18:10:53.866Z,4.75
2023-05-15T18:13:28.457Z,4.72
2023-05-15T18:16:01.542Z,5.57
2023-05-15T18:18:36.203Z,5.03
2023-05-15T18:21:09.160Z,5.00
2023-05-15T18:23:42.125Z,5.40
2023-05-15T18:26:15.108Z,5.03
2023-05-15T18:28:49.442Z,6.05
2023-05-15T18:31:22.498Z,5.45
2023-05-15T18:33:55.614Z,5.00
2023-05-15T18:36:28.668Z,5.53
2023-05-15T18:39:02.459Z,5.07
2023-05-15T18:41:35.532Z,5.30
2023-05-15T18:44:09.891Z,5.05
2023-05-15T18:46:42.944Z,5.47
2023-05-15T18:49:17.960Z,5.55
2023-05-15T18:51:50.994Z,5.70
2023-05-15T18:54:23.982Z,6.18
2023-05-15T18:56:57.006Z,5.72
2023-05-15T18:59:31.379Z,6.03
2023-05-15T19:02:04.545Z,5.80
2023-05-15T19:04:37.744Z,5.90
2023-05-15T19:07:10.785Z,5.43
2023-05-15T19:09:43.779Z,5.80
2023-05-15T19:12:16.870Z,6.07
2023-05-15T19:14:51.808Z,6.20
2023-05-15T19:17:24.918Z,6.03
2023-05-15T19:19:57.985Z,6.78
2023-05-15T19:22:30.988Z,6.68
2023-05-15T19:25:04.818Z,6.25
2023-05-15T19:27:37.835Z,7.35
2023-05-15T19:30:13.161Z,6.57
2023-05-15T19:32:46.210Z,6.72
2023-05-15T19:35:19.925Z,6.50
2023-05-15T19:37:52.935Z,7.35
2023-05-15T19:40:26.159Z,7.45
2023-05-15T19:42:59.291Z,7.43
2023-05-15T19:45:33.673Z,7.25
2023-05-15T19:48:07.356Z,7.22
2023-05-15T19:50:40.683Z,7.05
2023-05-15T19:53:13.713Z,7.80
2023-05-15T19:55:47.240Z,6.95
2023-05-15T19:58:22.205Z,7.57
2023-05-15T20:00:57.070Z,8.23
2023-05-15T20:03:33.183Z,8.50
2023-05-15T20:06:06.682Z,7.78
2023-05-15T20:08:40.244Z,8.05
2023-05-15T20:11:13.257Z,7.35
2023-05-15T20:13:46.529Z,7.55
2023-05-15T20:16:21.889Z,7.05
2023-05-15T20:18:55.536Z,7.90
2023-05-15T20:21:28.624Z,7.90
2023-05-15T20:24:01.675Z,7.25
2023-05-15T20:26:35.739Z,7.05
2023-05-15T20:29:08.764Z,7.38
2023-05-15T20:31:43.202Z,7.50
2023-05-15T20:34:16.470Z,7.15
2023-05-15T20:36:52.546Z,7.57
2023-05-15T20:39:26.033Z,8.50
2023-05-15T20:41:59.026Z,7.72
2023-05-15T20:44:36.190Z,8.75
2023-05-15T20:47:10.545Z,7.97
2023-05-15T20:49:43.752Z,6.97
2023-05-15T20:52:16.763Z,7.45
2023-05-15T20:54:49.778Z,7.50
2023-05-15T20:57:22.781Z,7.65
2023-05-15T20:59:55.772Z,7.95
2023-05-15T21:02:30.126Z,7.22
2023-05-15T21:05:03.654Z,8.35
2023-05-15T21:07:37.439Z,7.82
2023-05-15T21:10:11.473Z,7.60
2023-05-15T21:12:44.471Z,7.97
2023-05-15T21:15:17.632Z,7.28
2023-05-15T21:17:52.057Z,7.50
2023-05-15T21:20:26.909Z,7.03
2023-05-15T21:23:00.280Z,7.80
2023-05-15T21:25:34.383Z,7.70
2023-05-15T21:28:07.618Z,7.32
2023-05-15T21:30:40.653Z,7.88
2023-05-15T21:33:15.020Z,7.18
2023-05-15T21:35:48.702Z,7.28
2023-05-15T21:38:21.734Z,6.97
2023-05-15T21:40:54.774Z,7.03
2023-05-15T21:43:27.819Z,7.80
2023-05-15T21:46:00.892Z,7.28
2023-05-15T21:48:35.260Z,7.35
2023-05-15T21:51:08.300Z,7.60
2023-05-15T21:53:41.420Z,7.60
2023-05-15T21:56:14.405Z,6.95
2023-05-15T21:58:47.712Z,8.18
2023-05-15T22:01:20.971Z,7.65
2023-05-15T22:03:55.529Z,7.22
2023-05-15T22:06:28.552Z,7.63
2023-05-15T22:09:01.709Z,7.40
2023-05-15T22:11:34.785Z,7.15
2023-05-15T22:14:07.975Z,7.22
2023-05-15T22:16:40.971Z,8.10
2023-05-15T22:19:31.597Z,8.02
2023-05-15T22:22:06.228Z,7.47
2023-05-15T22:24:39.253Z,7.88
2023-05-15T22:27:12.277Z,7.80
2023-05-15T22:29:45.269Z,7.88
2023-05-15T22:32:18.221Z,7.38
2023-05-15T22:34:52.579Z,7.53
2023-05-15T22:37:25.763Z,8.48
2023-05-15T22:39:58.762Z,8.20
2023-05-15T22:42:31.772Z,8.00
2023-05-15T22:45:05.963Z,8.30
2023-05-15T22:47:39.130Z,8.32
2023-05-15T22:50:14.219Z,8.68
2023-05-15T22:52:47.221Z,8.40
2023-05-15T22:55:20.191Z,7.72
2023-05-15T22:57:53.122Z,8.93
2023-05-15T23:00:26.472Z,9.15
2023-05-15T23:02:59.607Z,8.57
2023-05-15T23:05:34.026Z,7.47
2023-05-15T23:08:07.286Z,8.15
2023-05-15T23:10:40.433Z,8.05
2023-05-15T23:13:13.469Z,8.68
2023-05-15T23:15:46.794Z,8.93
2023-05-15T23:18:20.121Z,9.27
2023-05-15T23:20:54.487Z,8.55
2023-05-15T23:23:28.198Z,8.70
2023-05-15T23:26:01.180Z,8.57
2023-05-15T23:28:34.139Z,8.10
2023-05-15T23:31:07.233Z,8.75
2023-05-15T23:33:40.284Z,8.63
2023-05-15T23:36:14.625Z,8.65
2023-05-15T23:38:47.600Z,8.15
2023-05-15T23:41:21.904Z,8.00
2023-05-15T23:43:55.136Z,8.40
2023-05-15T23:46:28.105Z,7.70
2023-05-15T23:49:01.097Z,8.45
2023-05-15T23:51:35.473Z,7.65
2023-05-15T23:54:08.431Z,8.07
2023-05-15T23:56:41.392Z,8.20
2023-05-15T23:59:14.678Z,7.80
